Latest Weather Observations for Marree Airport

IDS60801

Issued at 11:01 pm CST Tuesday 1 September 2015 (issued every 30 minutes, with the page automatically refreshed every 10 minutes)

About weather observations | Map of weather stations | Latest weather observations for SA | Other Formats
Station Details ID: 017126 Name: MARREE AERO Lat: -29.66 Lon: 138.07 Height: 50.0 m
Data from the previous 72 hours. | See also: Recent months at Marree Airport
Date/Time
CST
Temp
°C
App
Temp
°C
Dew
Point
Rel
Hum
%
Delta-T
°C
Wind Press
QNH
hPa
Press
MSL
hPa
Rain
since 9 am
mm
Dir
 
Spd
km/h
Gust
km/h
Spd
kts
Gust
kts
01/11:00pm 12.5 8.6 5.2 61 3.4 ENE 15 19 8 10 1009.0 - 0.2
01/10:30pm 13.0 9.9 5.4 60 3.6 E 11 15 6 8 1009.5 - 0.2
01/10:00pm 13.0 10.3 5.7 61 3.4 ENE 9 15 5 8 1009.8 - 0.2
01/09:30pm 13.2 9.5 6.3 63 3.3 ENE 15 19 8 10 1009.8 - 0.2
01/09:00pm 13.6 10.7 6.5 62 3.4 ENE 11 15 6 8 1010.2 1010.1 0.2
01/08:30pm 14.2 10.1 6.3 59 3.8 NE 17 22 9 12 1010.2 - 0.2
01/08:00pm 14.4 11.8 6.3 58 3.9 NNE 9 11 5 6 1010.8 - 0.2
01/07:30pm 14.5 10.0 6.1 57 4.0 NE 19 24 10 13 1009.9 - 0.2
01/07:00pm 15.0 10.0 6.3 56 4.2 NE 22 28 12 15 1009.4 - 0.2
01/06:30pm 15.6 10.7 5.2 50 4.9 ENE 20 26 11 14 1009.0 - 0.2
01/06:00pm 15.7 9.3 5.3 50 5.0 NNE 28 35 15 19 1009.2 1009.1 0.2
01/05:30pm 16.6 9.0 4.0 43 5.9 NNE 33 43 18 23 1009.0 - 0.2
01/05:00pm 16.9 9.2 3.2 40 6.3 NNE 33 44 18 24 1009.1 - 0.2
01/04:30pm 17.3 8.7 2.5 37 6.7 NNE 37 50 20 27 1009.7 - 0.2
01/04:00pm 17.2 9.1 3.5 40 6.4 NNE 35 44 19 24 1009.9 - 0.2
01/03:30pm 17.2 9.2 5.5 46 5.7 NNE 37 48 20 26 1009.9 - 0.2
01/03:00pm 16.4 10.3 6.8 53 4.7 NE 28 32 15 17 1010.7 1010.5 0.2
01/02:30pm 17.0 9.8 5.0 45 5.7 N 32 41 17 22 1011.3 - 0.2
01/02:00pm 17.9 11.1 3.0 37 6.9 NNE 28 35 15 19 1011.7 - 0.0
01/01:30pm 18.0 11.5 2.7 36 7.0 NE 26 35 14 19 1011.9 - 0.0
01/01:00pm 16.4 9.3 3.8 43 5.9 NE 30 35 16 19 1013.2 - 0.0
01/12:30pm 16.4 10.3 4.8 46 5.5 NNE 26 35 14 19 1014.2 - 0.0
01/12:00pm 16.0 10.3 5.0 48 5.2 NNE 24 33 13 18 1015.0 1014.9 0.0
01/11:30am 16.3 10.2 2.7 40 6.2 NNE 24 32 13 17 1015.6 - 0.0
01/11:00am 16.3 10.4 2.0 38 6.4 NNE 22 32 12 17 1015.7 - 0.0
01/10:30am 15.3 10.2 4.1 47 5.2 NE 20 28 11 15 1015.6 - 0.0
01/10:00am 14.2 10.2 4.8 53 4.4 NE 15 20 8 11 1016.6 - 0.0
01/09:30am 15.0 9.8 0.1 36 6.3 NE 17 20 9 11 1016.4 - 0.0
01/09:00am 15.1 10.0 -1.9 31 6.9 NNE 15 19 8 10 1016.4 1016.3 0.0
01/08:30am 14.5 9.1 -1.6 33 6.5 NE 17 20 9 11 1015.6 - 0.0
01/08:00am 13.9 9.3 -1.3 35 6.2 ENE 13 15 7 8 1015.5 - 0.0
01/07:30am 13.1 9.2 -1.6 36 5.9 NE 9 11 5 6 1015.9 - 0.0
01/07:00am 12.8 9.3 -1.5 37 5.7 N 7 11 4 6 1015.9 - 0.0
01/06:30am 12.6 8.2 -2.1 36 5.8 NE 11 15 6 8 1015.4 - 0.0
01/06:00am 12.4 8.4 -2.2 36 5.7 NNE 9 11 5 6 1015.6 1015.5 0.0
01/05:30am 12.2 8.2 -2.4 36 5.7 NNE 9 11 5 6 1015.3 - 0.0
01/05:00am 12.2 8.2 -2.0 37 5.6 NNE 9 11 5 6 1015.5 - 0.0
01/04:30am 12.3 8.3 -2.0 37 5.6 NE 9 11 5 6 1015.3 - 0.0
01/04:00am 11.2 7.2 -2.2 39 5.2 NE 9 11 5 6 1015.4 - 0.0
01/03:30am 10.7 7.1 -2.3 40 5.0 N 7 9 4 5 1015.8 - 0.0
01/03:00am 11.8 7.8 -2.0 38 5.4 NNE 9 11 5 6 1015.9 1015.8 0.0
01/02:30am 11.5 7.5 -2.0 39 5.3 NNE 9 11 5 6 1016.5 - 0.0
01/02:00am 11.7 6.9 -2.5 37 5.5 ENE 13 15 7 8 1016.3 - 0.0
01/01:30am 12.3 7.2 -2.0 37 5.6 NE 15 17 8 9 1016.8 - 0.0
01/01:00am 12.6 7.5 -2.1 36 5.8 NNE 15 17 8 9 1017.3 - 0.0
01/12:30am 13.8 8.7 -1.8 34 6.3 NNE 15 19 8 10 1017.1 - 0.0
01/12:00am 13.7 8.7 -1.5 35 6.1 NNE 15 19 8 10 1017.1 1017.0 0.0
 
Date/Time
CST
Temp
°C
App
Temp
°C
Dew
Point
Rel
Hum
%
Delta-T
°C
Wind Press
QNH
hPa
Press
MSL
hPa
Rain
since 9 am
mm
Dir
 
Spd
km/h
Gust
km/h
Spd
kts
Gust
kts
31/11:30pm 14.5 9.6 -0.4 36 6.2 NNE 15 17 8 9 1017.4 - 0.0
31/11:00pm 14.3 9.8 -0.6 36 6.2 NNE 13 15 7 8 1017.6 - 0.0
31/10:30pm 14.3 10.5 -0.9 35 6.3 NE 9 13 5 7 1018.2 - 0.0
31/10:00pm 15.2 10.6 -0.9 33 6.7 NNE 13 13 7 7 1018.3 - 0.0
31/09:30pm 15.7 11.1 -1.4 31 7.1 NE 13 15 7 8 1018.3 - 0.0
31/09:00pm 16.2 11.6 -1.4 30 7.3 NE 13 15 7 8 1018.4 1018.4 0.0
31/08:30pm 17.1 12.1 -1.1 29 7.7 NE 15 15 8 8 1018.4 - 0.0
31/08:00pm 18.2 14.0 -1.1 27 8.2 NNE 11 11 6 6 1018.3 - 0.0
31/07:30pm 19.1 14.9 -0.8 26 8.6 NNE 11 13 6 7 1018.3 - 0.0
31/07:00pm 19.9 15.7 -0.7 25 9.0 NNE 11 11 6 6 1018.2 - 0.0
31/06:30pm 20.0 15.8 -0.6 25 9.0 N 11 13 6 7 1018.1 - 0.0
31/06:00pm 20.7 16.5 -0.6 24 9.3 N 11 15 6 8 1018.0 1018.0 0.0
31/05:30pm 21.6 17.0 -1.0 22 9.9 NNE 13 20 7 11 1017.6 - 0.0
31/05:00pm 22.2 18.8 -0.5 22 10.1 NNE 7 13 4 7 1017.7 - 0.0
31/04:30pm 22.5 19.1 -0.3 22 10.2 N 7 17 4 9 1017.8 - 0.0
31/04:00pm 22.1 17.9 -1.2 21 10.3 ENE 11 19 6 10 1017.9 - 0.0
31/03:30pm 22.1 17.5 -1.2 21 10.3 NE 13 20 7 11 1017.9 - 0.0
31/03:00pm 22.2 18.4 -0.5 22 10.1 E 9 15 5 8 1018.2 1018.2 0.0
31/02:30pm 22.1 17.6 -0.6 22 10.1 ENE 13 20 7 11 1018.5 - 0.0
31/02:00pm 22.0 17.4 -0.7 22 10.1 N 13 22 7 12 1018.9 - 0.0
31/01:30pm 21.8 16.5 -0.8 22 10.0 NNW 17 24 9 13 1019.6 - 0.0
31/01:00pm 20.8 16.6 -1.1 23 9.5 NNE 11 19 6 10 1020.3 - 0.0
31/12:30pm 20.6 16.0 -0.7 24 9.3 N 13 20 7 11 1020.7 - 0.0
31/12:00pm 20.9 16.4 -0.4 24 9.4 NNE 13 20 7 11 1021.0 1021.0 0.0
31/11:30am 19.3 14.0 -0.7 26 8.7 NE 17 26 9 14 1021.4 - 0.0
31/11:00am 19.0 13.2 -0.4 27 8.4 NNE 20 28 11 15 1021.9 - 0.0
31/10:30am 18.7 13.1 -0.2 28 8.2 NNE 19 24 10 13 1022.3 - 0.0
31/10:00am 17.5 11.2 -0.7 29 7.8 NE 22 26 12 14 1022.3 - 0.0
31/09:30am 17.0 10.7 -1.1 29 7.6 NE 22 28 12 15 1022.6 - 0.0
31/09:00am 15.9 10.5 -1.2 31 7.1 NE 17 20 9 11 1022.6 1022.6 0.0
31/08:30am 13.8 9.5 -1.4 35 6.2 E 11 17 6 9 1022.5 - 0.0
31/08:00am 10.2 6.4 -0.9 46 4.4 SE 9 11 5 6 1022.2 - 0.0
31/07:30am 7.8 3.6 -1.2 53 3.4 SSE 11 13 6 7 1021.8 - 0.0
31/07:00am 6.1 1.4 -1.5 58 2.8 SSE 13 15 7 8 1021.6 - 0.0
31/06:30am 5.6 0.6 -1.5 60 2.6 SSE 15 17 8 9 1021.2 - 0.0
31/06:00am 5.7 1.1 -1.4 60 2.6 SSE 13 15 7 8 1021.2 1021.2 0.0
31/05:30am 5.4 0.3 -2.0 59 2.7 SSE 15 17 8 9 1021.1 - 0.0
31/05:00am 6.3 0.9 -1.6 57 2.9 SE 17 19 9 10 1020.8 - 0.0
31/04:30am 7.0 1.2 -1.2 56 3.1 SSE 19 20 10 11 1020.8 - 0.0
31/04:00am 5.8 0.2 -2.5 55 3.0 SSE 17 19 9 10 1020.8 - 0.0
31/03:30am 6.3 1.2 -2.3 54 3.1 SSE 15 17 8 9 1021.1 - 0.0
31/03:00am 6.9 1.8 -2.3 52 3.4 SE 15 15 8 8 1021.5 1021.5 0.0
31/02:30am 8.3 3.3 -1.0 52 3.6 SSE 15 17 8 9 1021.7 - 0.0
31/02:00am 8.2 5.5 -2.4 47 4.0 E 2 7 1 4 1021.9 - 0.0
31/01:30am 9.9 6.9 -1.5 45 4.4 ENE 4 7 2 4 1022.1 - 0.0
31/01:00am 9.7 6.2 -1.6 45 4.4 ENE 7 9 4 5 1022.4 - 0.0
31/12:30am 9.7 6.4 -1.6 45 4.4 N 6 9 3 5 1022.3 - 0.0
31/12:00am 9.8 5.4 -2.2 43 4.6 NNE 11 11 6 6 1022.3 1022.3 0.0
 
Date/Time
CST
Temp
°C
App
Temp
°C
Dew
Point
Rel
Hum
%
Delta-T
°C
Wind Press
QNH
hPa
Press
MSL
hPa
Rain
since 9 am
mm
Dir
 
Spd
km/h
Gust
km/h
Spd
kts
Gust
kts
30/11:30pm 11.6 6.6 -1.2 41 5.1 NE 15 17 8 9 1022.5 - 0.0
30/11:00pm 11.0 6.3 -1.7 41 5.0 ENE 13 15 7 8 1022.9 - 0.0
30/10:30pm 11.2 8.6 -1.9 40 5.1 NW 2 6 1 3 1022.7 - 0.0
30/10:00pm 12.1 8.5 -1.8 38 5.5 NW 7 9 4 5 1022.9 - 0.0
30/09:30pm 14.0 10.1 -1.2 35 6.2 NNE 9 11 5 6 1023.0 - 0.0
30/09:00pm 14.1 10.2 -1.5 34 6.3 NNE 9 11 5 6 1022.8 1022.8 0.0
30/08:30pm 15.5 11.3 -1.1 32 6.9 ENE 11 13 6 7 1022.5 - 0.0
30/08:00pm 16.1 11.5 -1.0 31 7.2 ENE 13 13 7 7 1022.2 - 0.0
30/07:30pm 16.1 12.3 -1.0 31 7.2 ENE 9 9 5 5 1022.0 - 0.0
30/07:00pm 16.4 12.9 -1.7 29 7.5 ENE 7 9 4 5 1021.8 - 0.0
30/06:30pm 18.2 16.1 -0.6 28 8.1 CALM 0 0 0 0 1021.5 - 0.0
30/06:00pm 18.8 16.7 -0.6 27 8.4 CALM 0 0 0 0 1021.5 1021.5 0.0
30/05:30pm 19.5 16.3 -0.5 26 8.7 NNE 6 11 3 6 1021.3 - 0.0
30/05:00pm 20.3 16.2 -0.3 25 9.1 NNE 11 19 6 10 1021.2 - 0.0
30/04:30pm 20.7 17.9 -0.6 24 9.4 NW 4 11 2 6 1021.2 - 0.0
30/04:00pm 20.2 16.0 -1.0 24 9.2 NNE 11 19 6 10 1021.3 - 0.0
30/03:30pm 21.2 17.9 0.4 25 9.4 NNW 7 13 4 7 1021.3 - 0.0
30/03:00pm 20.7 17.4 0.0 25 9.2 E 7 15 4 8 1021.6 1021.6 0.0
30/02:30pm 20.9 17.7 -0.4 24 9.4 ENE 6 13 3 7 1021.9 - 0.0
30/02:00pm 20.5 17.2 0.4 26 9.0 N 7 15 4 8 1022.3 - 0.0
30/01:30pm 19.9 16.3 0.4 27 8.7 WSW 9 13 5 7 1022.9 - 0.0
30/01:00pm 20.1 16.4 0.0 26 8.9 NW 9 17 5 9 1023.3 - 0.0
30/12:30pm 19.1 15.1 0.2 28 8.3 E 11 24 6 13 1023.9 - 0.0
30/12:00pm 19.4 15.5 0.9 29 8.3 NE 11 20 6 11 1024.4 1024.4 0.0
30/11:30am 18.3 14.0 0.9 31 7.7 N 13 22 7 12 1024.8 - 0.0
30/11:00am 18.1 12.6 0.7 31 7.7 NE 19 28 10 15 1025.3 - 0.0
30/10:30am 17.4 10.9 0.1 31 7.5 NE 24 33 13 18 1025.6 - 0.0
30/10:00am 17.1 10.3 0.7 33 7.2 NE 26 33 14 18 1025.7 - 0.0
30/09:30am 16.2 10.1 0.3 34 6.8 ENE 22 30 12 16 1025.8 - 0.0
30/09:00am 14.7 8.7 0.9 39 5.9 ENE 22 28 12 15 1025.8 1025.8 0.0
30/08:30am 11.6 7.7 1.3 49 4.3 ESE 11 15 6 8 1025.6 - 0.0
30/08:00am 9.4 5.1 1.1 56 3.4 SSE 13 15 7 8 1025.3 - 0.0
30/07:30am 8.1 3.8 1.0 61 2.9 SSE 13 15 7 8 1025.0 - 0.0
30/07:00am 5.8 1.4 0.6 69 2.0 SSE 13 15 7 8 1024.7 - 0.0
30/06:30am 3.7 -0.9 -1.4 69 1.8 SSE 13 15 7 8 1024.3 - 0.0
30/06:00am 3.6 -1.4 -1.5 69 1.8 SSE 15 17 8 9 1024.1 1024.1 0.0
30/05:30am 3.7 -1.0 -1.8 67 2.0 SSE 13 15 7 8 1024.0 - 0.0
30/05:00am 4.5 -0.1 -1.1 67 2.1 SSE 13 15 7 8 1023.8 - 0.0
30/04:30am 4.9 0.3 -0.9 66 2.2 SSE 13 15 7 8 1023.8 - 0.0
30/04:00am 5.1 0.5 -0.9 65 2.2 SSE 13 15 7 8 1023.8 - 0.0
30/03:30am 6.6 2.1 -0.6 60 2.8 SSE 13 15 7 8 1024.0 - 0.0
30/03:00am 8.5 3.4 0.5 57 3.2 SSE 17 17 9 9 1024.0 1024.0 0.0
30/02:30am 9.3 4.2 1.0 56 3.4 S 17 19 9 10 1024.2 - 0.0
30/02:00am 8.5 3.8 1.0 59 3.0 S 15 17 8 9 1024.5 - 0.0
30/01:30am 8.6 3.9 0.6 57 3.2 S 15 17 8 9 1024.7 - 0.0
30/01:00am 9.2 4.5 0.9 56 3.4 S 15 17 8 9 1025.0 - 0.0
30/12:30am 9.7 5.0 1.1 55 3.5 S 15 17 8 9 1025.3 - 0.0
30/12:00am 9.9 5.3 1.3 55 3.5 S 15 17 8 9 1025.4 1025.4 0.0
 
Date/Time
CST
Temp
°C
App
Temp
°C
Dew
Point
Rel
Hum
%
Delta-T
°C
Wind Press
QNH
hPa
Press
MSL
hPa
Rain
since 9 am
mm
Dir
 
Spd
km/h
Gust
km/h
Spd
kts
Gust
kts
29/11:30pm 10.0 5.4 1.4 55 3.6 S 15 17 8 9 1025.5 - 0.0

Other Formats:

Comma delimited format used in spreadsheet applications
http://www.bom.gov.au/fwo/IDS60801/IDS60801.95480.axf

JavaScript Object Notation format (JSON) in row-major order
http://www.bom.gov.au/fwo/IDS60801/IDS60801.95480.json